sensor_id;sensor_type;location;lat;lon;timestamp;pressure;altitude;pressure_sealevel;temperature;humidity
56400;BME280;42298;53.638;9.876;2023-01-29T08:59:12;102103.66;;;13.02;49.40
56400;BME280;42298;53.638;9.876;2023-01-29T09:01:37;102108.63;;;13.00;50.04
56400;BME280;42298;53.638;9.876;2023-01-29T09:04:02;102117.19;;;13.03;49.65
56400;BME280;42298;53.638;9.876;2023-01-29T09:06:28;102112.81;;;13.21;49.28
56400;BME280;42298;53.638;9.876;2023-01-29T09:08:53;102114.53;;;13.17;49.49
56400;BME280;42298;53.638;9.876;2023-01-29T09:11:18;102124.59;;;13.31;49.77
56400;BME280;42298;53.638;9.876;2023-01-29T09:13:44;102126.81;;;13.29;48.86
56400;BME280;42298;53.638;9.876;2023-01-29T09:16:09;102132.94;;;13.26;49.49
56400;BME280;42298;53.638;9.876;2023-01-29T09:18:35;102121.88;;;13.26;49.76
56400;BME280;42298;53.638;9.876;2023-01-29T09:21:00;102118.00;;;13.27;50.35
56400;BME280;42298;53.638;9.876;2023-01-29T09:23:27;102109.63;;;13.32;50.19
56400;BME280;42298;53.638;9.876;2023-01-29T09:25:53;102109.50;;;13.42;49.94
56400;BME280;42298;53.638;9.876;2023-01-29T09:28:18;102105.69;;;13.38;50.38
56400;BME280;42298;53.638;9.876;2023-01-29T09:30:43;102117.88;;;13.37;50.53
56400;BME280;42298;53.638;9.876;2023-01-29T09:33:09;102097.84;;;13.45;49.90
56400;BME280;42298;53.638;9.876;2023-01-29T09:35:34;102112.31;;;13.61;50.26
56400;BME280;42298;53.638;9.876;2023-01-29T09:38:00;102090.81;;;13.34;50.80
56400;BME280;42298;53.638;9.876;2023-01-29T09:40:54;102094.31;;;13.40;50.65
56400;BME280;42298;53.638;9.876;2023-01-29T09:47:02;102085.97;;;13.45;50.84
56400;BME280;42298;53.638;9.876;2023-01-29T09:49:23;102089.22;;;13.71;51.01
56400;BME280;42298;53.638;9.876;2023-01-29T09:51:52;102076.44;;;13.75;50.52
56400;BME280;42298;53.638;9.876;2023-01-29T09:54:23;102074.41;;;13.99;50.33
56400;BME280;42298;53.638;9.876;2023-01-29T09:56:55;102069.41;;;14.01;50.21
56400;BME280;42298;53.638;9.876;2023-01-29T09:59:23;102068.44;;;13.92;50.28
56400;BME280;42298;53.638;9.876;2023-01-29T10:10:49;102032.19;;;13.70;51.46
56400;BME280;42298;53.638;9.876;2023-01-29T10:13:29;102030.91;;;13.81;50.53
56400;BME280;42298;53.638;9.876;2023-01-29T10:19:16;102031.47;;;13.83;50.79
56400;BME280;42298;53.638;9.876;2023-01-29T10:22:02;102032.25;;;13.83;50.64
56400;BME280;42298;53.638;9.876;2023-01-29T10:24:52;102023.47;;;14.32;50.14
56400;BME280;42298;53.638;9.876;2023-01-29T10:27:18;102026.59;;;13.75;50.73
56400;BME280;42298;53.638;9.876;2023-01-29T10:29:46;102017.38;;;13.98;50.98
56400;BME280;42298;53.638;9.876;2023-01-29T10:32:15;102005.69;;;14.01;50.47
56400;BME280;42298;53.638;9.876;2023-01-29T10:34:50;102025.16;;;13.96;50.15
56400;BME280;42298;53.638;9.876;2023-01-29T10:37:22;102008.47;;;14.01;50.11
56400;BME280;42298;53.638;9.876;2023-01-29T10:39:49;102007.09;;;13.98;49.98
56400;BME280;42298;53.638;9.876;2023-01-29T10:42:30;101997.28;;;14.06;49.85
56400;BME280;42298;53.638;9.876;2023-01-29T10:45:11;102001.28;;;13.63;51.19
56400;BME280;42298;53.638;9.876;2023-01-29T10:47:55;101991.66;;;13.60;51.29
56400;BME280;42298;53.638;9.876;2023-01-29T10:50:47;101998.69;;;13.53;50.89
56400;BME280;42298;53.638;9.876;2023-01-29T10:53:29;101992.81;;;13.73;51.37
56400;BME280;42298;53.638;9.876;2023-01-29T10:56:26;101989.22;;;13.91;50.37
56400;BME280;42298;53.638;9.876;2023-01-29T10:59:03;101964.16;;;13.82;50.88
56400;BME280;42298;53.638;9.876;2023-01-29T11:01:33;101976.97;;;13.60;50.91
56400;BME280;42298;53.638;9.876;2023-01-29T11:04:01;101974.75;;;13.62;51.68
56400;BME280;42298;53.638;9.876;2023-01-29T11:06:32;101962.28;;;13.78;50.79
56400;BME280;42298;53.638;9.876;2023-01-29T11:09:25;101970.97;;;13.71;50.85
56400;BME280;42298;53.638;9.876;2023-01-29T11:12:08;101956.56;;;13.56;51.08
56400;BME280;42298;53.638;9.876;2023-01-29T11:14:46;101952.28;;;13.63;50.69
56400;BME280;42298;53.638;9.876;2023-01-29T11:17:21;101960.81;;;13.67;50.90
56400;BME280;42298;53.638;9.876;2023-01-29T11:19:48;101947.34;;;13.41;51.58
56400;BME280;42298;53.638;9.876;2023-01-29T11:22:28;101950.19;;;13.74;50.70
56400;BME280;42298;53.638;9.876;2023-01-29T11:25:17;101959.34;;;13.56;51.03
56400;BME280;42298;53.638;9.876;2023-01-29T11:27:57;101940.19;;;13.40;51.26
56400;BME280;42298;53.638;9.876;2023-01-29T11:30:28;101946.53;;;13.41;51.83
56400;BME280;42298;53.638;9.876;2023-01-29T11:35:42;101945.63;;;13.45;51.35
56400;BME280;42298;53.638;9.876;2023-01-29T11:38:18;101924.81;;;13.67;50.44
56400;BME280;42298;53.638;9.876;2023-01-29T11:40:45;101927.28;;;13.68;50.17
56400;BME280;42298;53.638;9.876;2023-01-29T11:43:16;101932.25;;;13.85;50.73
56400;BME280;42298;53.638;9.876;2023-01-29T11:45:43;101922.28;;;13.70;50.93
56400;BME280;42298;53.638;9.876;2023-01-29T11:48:18;101922.34;;;13.65;49.73
56400;BME280;42298;53.638;9.876;2023-01-29T11:50:53;101908.34;;;13.75;50.42
56400;BME280;42298;53.638;9.876;2023-01-29T11:53:38;101907.88;;;13.87;50.11
56400;BME280;42298;53.638;9.876;2023-01-29T11:56:16;101911.66;;;13.91;49.77
56400;BME280;42298;53.638;9.876;2023-01-29T11:58:42;101904.72;;;13.93;50.20
56400;BME280;42298;53.638;9.876;2023-01-29T12:01:09;101894.63;;;13.84;49.65
56400;BME280;42298;53.638;9.876;2023-01-29T12:03:52;101909.19;;;13.89;49.15
56400;BME280;42298;53.638;9.876;2023-01-29T12:06:21;101898.09;;;13.76;50.36
56400;BME280;42298;53.638;9.876;2023-01-29T12:08:57;101890.53;;;13.81;50.07
56400;BME280;42298;53.638;9.876;2023-01-29T12:11:32;101881.50;;;13.89;50.30
56400;BME280;42298;53.638;9.876;2023-01-29T12:14:00;101885.69;;;13.73;50.47
56400;BME280;42298;53.638;9.876;2023-01-29T12:19:06;101871.22;;;14.22;49.89
56400;BME280;42298;53.638;9.876;2023-01-29T12:21:45;101870.94;;;14.37;49.08
56400;BME280;42298;53.638;9.876;2023-01-29T12:26:54;101850.41;;;14.24;49.55
56400;BME280;42298;53.638;9.876;2023-01-29T12:32:52;101848.28;;;14.03;49.92
56400;BME280;42298;53.638;9.876;2023-01-29T12:35:24;101842.81;;;14.30;48.73
56400;BME280;42298;53.638;9.876;2023-01-29T12:38:17;101831.72;;;14.30;49.04
56400;BME280;42298;53.638;9.876;2023-01-29T12:40:46;101823.72;;;14.42;48.96
56400;BME280;42298;53.638;9.876;2023-01-29T12:43:15;101811.38;;;14.07;49.20
56400;BME280;42298;53.638;9.876;2023-01-29T12:45:42;101810.25;;;14.22;49.06
56400;BME280;42298;53.638;9.876;2023-01-29T12:48:13;101805.75;;;14.12;48.94
56400;BME280;42298;53.638;9.876;2023-01-29T12:50:43;101806.03;;;14.11;49.60
56400;BME280;42298;53.638;9.876;2023-01-29T12:53:24;101805.16;;;14.29;48.55
56400;BME280;42298;53.638;9.876;2023-01-29T12:55:54;101803.97;;;14.16;49.84
56400;BME280;42298;53.638;9.876;2023-01-29T12:58:51;101791.78;;;14.04;49.67
56400;BME280;42298;53.638;9.876;2023-01-29T13:01:34;101790.03;;;13.94;49.80
56400;BME280;42298;53.638;9.876;2023-01-29T13:04:31;101785.09;;;13.78;49.75
56400;BME280;42298;53.638;9.876;2023-01-29T13:07:09;101782.41;;;13.86;50.22
56400;BME280;42298;53.638;9.876;2023-01-29T13:09:38;101777.50;;;13.97;49.98
56400;BME280;42298;53.638;9.876;2023-01-29T13:12:11;101774.13;;;14.00;49.01
56400;BME280;42298;53.638;9.876;2023-01-29T13:14:47;101776.47;;;13.79;49.72
56400;BME280;42298;53.638;9.876;2023-01-29T13:17:19;101766.84;;;13.77;49.87
56400;BME280;42298;53.638;9.876;2023-01-29T13:19:53;101748.78;;;13.66;49.54
56400;BME280;42298;53.638;9.876;2023-01-29T13:22:25;101748.16;;;13.69;49.45
56400;BME280;42298;53.638;9.876;2023-01-29T13:24:51;101753.38;;;13.57;49.73
56400;BME280;42298;53.638;9.876;2023-01-29T13:27:23;101758.94;;;13.84;49.49
56400;BME280;42298;53.638;9.876;2023-01-29T13:29:49;101751.16;;;13.72;49.87
56400;BME280;42298;53.638;9.876;2023-01-29T13:32:21;101748.38;;;13.86;49.48
56400;BME280;42298;53.638;9.876;2023-01-29T13:34:47;101761.31;;;13.77;49.31
56400;BME280;42298;53.638;9.876;2023-01-29T13:37:47;101746.94;;;13.75;49.69
56400;BME280;42298;53.638;9.876;2023-01-29T13:40:22;101739.16;;;13.77;50.17
56400;BME280;42298;53.638;9.876;2023-01-29T13:42:49;101750.06;;;13.55;49.92
56400;BME280;42298;53.638;9.876;2023-01-29T13:45:23;101736.19;;;13.87;49.73
56400;BME280;42298;53.638;9.876;2023-01-29T13:47:51;101745.94;;;13.84;49.80
56400;BME280;42298;53.638;9.876;2023-01-29T13:50:20;101737.09;;;13.96;49.29
56400;BME280;42298;53.638;9.876;2023-01-29T13:52:59;101735.88;;;13.88;49.46
56400;BME280;42298;53.638;9.876;2023-01-29T13:55:29;101718.13;;;13.76;50.14
56400;BME280;42298;53.638;9.876;2023-01-29T13:57:59;101725.63;;;14.02;50.12
56400;BME280;42298;53.638;9.876;2023-01-29T14:07:53;101716.38;;;13.66;50.35
56400;BME280;42298;53.638;9.876;2023-01-29T14:10:22;101709.50;;;13.77;50.09
56400;BME280;42298;53.638;9.876;2023-01-29T14:18:25;101681.72;;;13.69;49.76
56400;BME280;42298;53.638;9.876;2023-01-29T14:23:51;101673.09;;;13.57;50.80
56400;BME280;42298;53.638;9.876;2023-01-29T14:26:33;101673.72;;;13.67;50.28
56400;BME280;42298;53.638;9.876;2023-01-29T14:34:31;101668.09;;;13.59;50.41
56400;BME280;42298;53.638;9.876;2023-01-29T14:37:27;101647.97;;;13.53;50.44
56400;BME280;42298;53.638;9.876;2023-01-29T14:39:51;101655.06;;;13.73;50.64
56400;BME280;42298;53.638;9.876;2023-01-29T14:42:30;101660.28;;;13.88;49.47
56400;BME280;42298;53.638;9.876;2023-01-29T14:50:43;101646.44;;;13.74;50.32
56400;BME280;42298;53.638;9.876;2023-01-29T14:52:48;101655.56;;;13.88;50.19
56400;BME280;42298;53.638;9.876;2023-01-29T14:57:51;101630.25;;;13.40;50.31
56400;BME280;42298;53.638;9.876;2023-01-29T15:00:26;101638.97;;;13.61;50.20
56400;BME280;42298;53.638;9.876;2023-01-29T15:02:52;101637.22;;;13.65;50.85
56400;BME280;42298;53.638;9.876;2023-01-29T15:05:29;101630.66;;;13.61;50.58
56400;BME280;42298;53.638;9.876;2023-01-29T15:08:05;101630.88;;;13.51;50.64
56400;BME280;42298;53.638;9.876;2023-01-29T15:10:38;101629.03;;;13.60;50.90
56400;BME280;42298;53.638;9.876;2023-01-29T15:13:34;101638.97;;;13.75;50.00
56400;BME280;42298;53.638;9.876;2023-01-29T15:16:08;101630.88;;;13.65;49.92
56400;BME280;42298;53.638;9.876;2023-01-29T15:18:40;101628.50;;;13.85;50.11
56400;BME280;42298;53.638;9.876;2023-01-29T15:21:14;101629.72;;;13.79;50.35
56400;BME280;42298;53.638;9.876;2023-01-29T15:23:40;101621.66;;;13.56;50.44
56400;BME280;42298;53.638;9.876;2023-01-29T15:26:24;101624.88;;;13.85;49.74
56400;BME280;42298;53.638;9.876;2023-01-29T15:28:59;101613.53;;;13.73;50.22
56400;BME280;42298;53.638;9.876;2023-01-29T15:31:25;101601.34;;;13.74;50.60
56400;BME280;42298;53.638;9.876;2023-01-29T15:33:54;101601.44;;;13.69;50.62
56400;BME280;42298;53.638;9.876;2023-01-29T15:36:23;101586.69;;;13.60;50.63
56400;BME280;42298;53.638;9.876;2023-01-29T15:41:34;101579.63;;;13.40;51.11
56400;BME280;42298;53.638;9.876;2023-01-29T15:44:00;101570.50;;;13.53;50.69
56400;BME280;42298;53.638;9.876;2023-01-29T15:46:27;101572.31;;;13.58;50.21
56400;BME280;42298;53.638;9.876;2023-01-29T15:48:55;101562.50;;;13.52;50.30
56400;BME280;42298;53.638;9.876;2023-01-29T15:51:23;101560.47;;;13.43;50.44
56400;BME280;42298;53.638;9.876;2023-01-29T15:53:51;101555.63;;;13.49;50.07
56400;BME280;42298;53.638;9.876;2023-01-29T15:56:21;101548.56;;;13.57;50.51
56400;BME280;42298;53.638;9.876;2023-01-29T15:58:48;101555.22;;;13.69;49.51
56400;BME280;42298;53.638;9.876;2023-01-29T16:01:15;101558.69;;;13.75;48.89
56400;BME280;42298;53.638;9.876;2023-01-29T16:03:41;101540.19;;;13.48;49.32
56400;BME280;42298;53.638;9.876;2023-01-29T16:06:07;101541.19;;;13.52;50.83
56400;BME280;42298;53.638;9.876;2023-01-29T16:08:33;101532.38;;;13.50;49.38
56400;BME280;42298;53.638;9.876;2023-01-29T16:11:01;101539.94;;;13.58;49.95
56400;BME280;42298;53.638;9.876;2023-01-29T16:13:29;101540.91;;;13.13;50.52
56400;BME280;42298;53.638;9.876;2023-01-29T16:15:58;101533.53;;;13.35;49.31
56400;BME280;42298;53.638;9.876;2023-01-29T16:18:30;101538.81;;;13.59;49.16
56400;BME280;42298;53.638;9.876;2023-01-29T16:20:59;101552.03;;;13.48;49.37
56400;BME280;42298;53.638;9.876;2023-01-29T16:23:30;101545.81;;;13.29;49.91
56400;BME280;42298;53.638;9.876;2023-01-29T16:26:08;101527.69;;;13.10;50.42
56400;BME280;42298;53.638;9.876;2023-01-29T16:28:43;101547.34;;;13.22;50.12
56400;BME280;42298;53.638;9.876;2023-01-29T16:31:10;101542.00;;;12.98;50.29
56400;BME280;42298;53.638;9.876;2023-01-29T16:33:38;101536.19;;;13.13;50.22
56400;BME280;42298;53.638;9.876;2023-01-29T16:36:24;101548.38;;;13.39;50.29
56400;BME280;42298;53.638;9.876;2023-01-29T16:39:02;101537.34;;;13.26;50.16
56400;BME280;42298;53.638;9.876;2023-01-29T16:41:32;101546.34;;;13.18;49.93
56400;BME280;42298;53.638;9.876;2023-01-29T16:46:47;101525.47;;;13.61;49.16
56400;BME280;42298;53.638;9.876;2023-01-29T16:51:56;101519.38;;;13.23;50.16
56400;BME280;42298;53.638;9.876;2023-01-29T16:54:41;101520.22;;;13.24;50.68
56400;BME280;42298;53.638;9.876;2023-01-29T16:57:14;101507.31;;;13.06;50.28
56400;BME280;42298;53.638;9.876;2023-01-29T16:59:41;101473.50;;;12.95;50.88
56400;BME280;42298;53.638;9.876;2023-01-29T17:02:36;101491.63;;;13.28;50.29
56400;BME280;42298;53.638;9.876;2023-01-29T17:05:06;101487.03;;;13.24;50.36
56400;BME280;42298;53.638;9.876;2023-01-29T17:07:32;101465.81;;;12.92;50.38
56400;BME280;42298;53.638;9.876;2023-01-29T17:10:04;101483.44;;;13.10;50.53
56400;BME280;42298;53.638;9.876;2023-01-29T17:12:31;101481.16;;;12.98;50.49
56400;BME280;42298;53.638;9.876;2023-01-29T17:15:04;101476.25;;;13.36;49.92
56400;BME280;42298;53.638;9.876;2023-01-29T17:17:48;101473.72;;;12.99;50.12
56400;BME280;42298;53.638;9.876;2023-01-29T17:20:15;101471.03;;;12.94;50.47
56400;BME280;42298;53.638;9.876;2023-01-29T17:22:41;101472.88;;;12.85;50.18
56400;BME280;42298;53.638;9.876;2023-01-29T17:25:08;101471.44;;;13.14;50.59
56400;BME280;42298;53.638;9.876;2023-01-29T17:27:34;101444.00;;;12.77;50.14
56400;BME280;42298;53.638;9.876;2023-01-29T17:29:59;101446.47;;;12.65;51.21
56400;BME280;42298;53.638;9.876;2023-01-29T17:32:25;101443.47;;;12.75;50.80
56400;BME280;42298;53.638;9.876;2023-01-29T17:34:51;101446.56;;;12.87;50.28
56400;BME280;42298;53.638;9.876;2023-01-29T17:37:17;101461.78;;;12.44;51.55
56400;BME280;42298;53.638;9.876;2023-01-29T17:39:42;101437.25;;;12.56;51.28
56400;BME280;42298;53.638;9.876;2023-01-29T17:42:12;101430.50;;;12.62;51.20
56400;BME280;42298;53.638;9.876;2023-01-29T17:44:38;101443.78;;;12.74;51.22
56400;BME280;42298;53.638;9.876;2023-01-29T17:47:04;101437.84;;;12.40;52.24
56400;BME280;42298;53.638;9.876;2023-01-29T17:49:30;101427.81;;;12.30;52.14
56400;BME280;42298;53.638;9.876;2023-01-29T17:51:57;101409.28;;;12.31;52.08
56400;BME280;42298;53.638;9.876;2023-01-29T17:54:22;101420.03;;;12.46;51.83
56400;BME280;42298;53.638;9.876;2023-01-29T17:56:50;101412.97;;;12.53;51.97
56400;BME280;42298;53.638;9.876;2023-01-29T17:59:20;101413.69;;;12.59;51.63
56400;BME280;42298;53.638;9.876;2023-01-29T18:01:46;101421.06;;;12.63;51.29
56400;BME280;42298;53.638;9.876;2023-01-29T18:04:12;101404.06;;;12.29;52.18
56400;BME280;42298;53.638;9.876;2023-01-29T18:06:38;101394.44;;;12.27;52.64
56400;BME280;42298;53.638;9.876;2023-01-29T18:09:04;101397.28;;;12.22;52.32
56400;BME280;42298;53.638;9.876;2023-01-29T18:11:31;101376.44;;;12.29;52.31
56400;BME280;42298;53.638;9.876;2023-01-29T18:13:57;101401.00;;;12.44;52.41
56400;BME280;42298;53.638;9.876;2023-01-29T18:16:23;101399.56;;;12.60;51.54
56400;BME280;42298;53.638;9.876;2023-01-29T18:18:50;101384.75;;;12.43;52.23
56400;BME280;42298;53.638;9.876;2023-01-29T18:21:16;101379.53;;;12.41;51.94
56400;BME280;42298;53.638;9.876;2023-01-29T18:23:41;101349.75;;;12.38;51.47
56400;BME280;42298;53.638;9.876;2023-01-29T18:26:11;101357.00;;;12.75;51.60
56400;BME280;42298;53.638;9.876;2023-01-29T18:28:37;101354.34;;;12.70;51.00
56400;BME280;42298;53.638;9.876;2023-01-29T18:31:03;101324.56;;;12.53;51.10
56400;BME280;42298;53.638;9.876;2023-01-29T18:33:29;101352.09;;;12.31;51.53
56400;BME280;42298;53.638;9.876;2023-01-29T18:35:55;101336.34;;;12.18;51.93
56400;BME280;42298;53.638;9.876;2023-01-29T18:38:24;101324.75;;;11.89;52.36
56400;BME280;42298;53.638;9.876;2023-01-29T18:40:52;101315.19;;;12.14;52.11
56400;BME280;42298;53.638;9.876;2023-01-29T18:43:17;101337.56;;;12.39;51.77
56400;BME280;42298;53.638;9.876;2023-01-29T18:45:45;101314.63;;;12.66;51.58
56400;BME280;42298;53.638;9.876;2023-01-29T18:48:12;101331.75;;;12.27;51.85
56400;BME280;42298;53.638;9.876;2023-01-29T18:50:40;101305.44;;;12.03;51.87
56400;BME280;42298;53.638;9.876;2023-01-29T18:53:05;101313.53;;;12.13;51.98
56400;BME280;42298;53.638;9.876;2023-01-29T18:55:31;101293.72;;;12.24;51.88
56400;BME280;42298;53.638;9.876;2023-01-29T18:57:57;101300.56;;;12.13;52.23
56400;BME280;42298;53.638;9.876;2023-01-29T19:00:22;101298.94;;;12.12;52.45
56400;BME280;42298;53.638;9.876;2023-01-29T19:02:48;101295.84;;;12.27;51.92
56400;BME280;42298;53.638;9.876;2023-01-29T19:05:14;101293.28;;;12.17;52.03
56400;BME280;42298;53.638;9.876;2023-01-29T19:07:41;101281.00;;;12.23;52.20
56400;BME280;42298;53.638;9.876;2023-01-29T19:10:15;101285.66;;;12.63;51.22
56400;BME280;42298;53.638;9.876;2023-01-29T19:12:41;101264.34;;;12.15;51.84
56400;BME280;42298;53.638;9.876;2023-01-29T19:15:08;101255.97;;;12.20;52.00
56400;BME280;42298;53.638;9.876;2023-01-29T19:17:33;101254.44;;;12.27;51.81
56400;BME280;42298;53.638;9.876;2023-01-29T19:20:03;101263.09;;;12.48;51.38
56400;BME280;42298;53.638;9.876;2023-01-29T19:22:29;101242.25;;;12.28;50.98
56400;BME280;42298;53.638;9.876;2023-01-29T19:24:55;101248.38;;;12.25;52.17
56400;BME280;42298;53.638;9.876;2023-01-29T19:27:20;101245.38;;;12.49;51.02
56400;BME280;42298;53.638;9.876;2023-01-29T19:29:46;101234.88;;;12.37;51.40
56400;BME280;42298;53.638;9.876;2023-01-29T19:32:11;101237.66;;;12.10;51.56
56400;BME280;42298;53.638;9.876;2023-01-29T19:34:36;101232.44;;;11.95;52.29
56400;BME280;42298;53.638;9.876;2023-01-29T19:37:02;101233.47;;;11.86;52.23
56400;BME280;42298;53.638;9.876;2023-01-29T19:39:27;101218.56;;;12.00;51.87
56400;BME280;42298;53.638;9.876;2023-01-29T19:41:57;101220.38;;;12.32;51.27
56400;BME280;42298;53.638;9.876;2023-01-29T19:44:23;101219.94;;;12.25;51.72
56400;BME280;42298;53.638;9.876;2023-01-29T19:46:49;101206.38;;;12.01;51.99
56400;BME280;42298;53.638;9.876;2023-01-29T19:49:14;101197.19;;;12.06;52.08
56400;BME280;42298;53.638;9.876;2023-01-29T19:51:40;101197.69;;;11.94;52.41
56400;BME280;42298;53.638;9.876;2023-01-29T19:54:05;101211.81;;;11.93;52.18
56400;BME280;42298;53.638;9.876;2023-01-29T19:56:32;101209.94;;;12.29;52.00
56400;BME280;42298;53.638;9.876;2023-01-29T19:58:58;101196.47;;;12.14;51.25
56400;BME280;42298;53.638;9.876;2023-01-29T20:01:23;101202.06;;;12.22;51.18
56400;BME280;42298;53.638;9.876;2023-01-29T20:03:49;101193.47;;;12.24;51.92
56400;BME280;42298;53.638;9.876;2023-01-29T20:06:21;101194.34;;;12.46;51.01
56400;BME280;42298;53.638;9.876;2023-01-29T20:08:47;101203.34;;;12.38;51.05
56400;BME280;42298;53.638;9.876;2023-01-29T20:11:14;101181.72;;;12.18;51.31
56400;BME280;42298;53.638;9.876;2023-01-29T20:13:40;101184.59;;;12.00;51.83
56400;BME280;42298;53.638;9.876;2023-01-29T20:16:06;101180.31;;;11.94;51.96
56400;BME280;42298;53.638;9.876;2023-01-29T20:18:31;101180.06;;;12.17;51.75
56400;BME280;42298;53.638;9.876;2023-01-29T20:20:57;101180.19;;;12.26;51.55
56400;BME280;42298;53.638;9.876;2023-01-29T20:23:23;101169.03;;;12.17;51.69
56400;BME280;42298;53.638;9.876;2023-01-29T20:25:50;101157.56;;;12.24;51.20
56400;BME280;42298;53.638;9.876;2023-01-29T20:28:16;101168.22;;;12.17;51.56
56400;BME280;42298;53.638;9.876;2023-01-29T20:30:43;101142.22;;;12.31;50.86
56400;BME280;42298;53.638;9.876;2023-01-29T20:33:10;101152.97;;;12.19;51.47
56400;BME280;42298;53.638;9.876;2023-01-29T20:35:36;101152.38;;;12.44;50.90
56400;BME280;42298;53.638;9.876;2023-01-29T20:38:03;101131.16;;;11.96;51.85
56400;BME280;42298;53.638;9.876;2023-01-29T20:40:29;101123.75;;;12.18;51.74
56400;BME280;42298;53.638;9.876;2023-01-29T20:42:55;101131.53;;;12.38;50.96
56400;BME280;42298;53.638;9.876;2023-01-29T20:45:20;101130.91;;;12.41;51.02
56400;BME280;42298;53.638;9.876;2023-01-29T20:47:46;101128.41;;;12.31;51.10
56400;BME280;42298;53.638;9.876;2023-01-29T20:50:13;101103.03;;;12.29;51.15
56400;BME280;42298;53.638;9.876;2023-01-29T20:52:40;101118.69;;;12.20;51.87
56400;BME280;42298;53.638;9.876;2023-01-29T20:55:08;101111.44;;;12.24;51.94
56400;BME280;42298;53.638;9.876;2023-01-29T20:57:35;101107.69;;;12.07;51.93
56400;BME280;42298;53.638;9.876;2023-01-29T21:00:01;101109.78;;;12.23;51.36
56400;BME280;42298;53.638;9.876;2023-01-29T21:02:27;101088.72;;;12.27;51.67
56400;BME280;42298;53.638;9.876;2023-01-29T21:04:52;101080.66;;;12.17;51.40
56400;BME280;42298;53.638;9.876;2023-01-29T21:07:17;101085.03;;;12.32;51.50
56400;BME280;42298;53.638;9.876;2023-01-29T21:09:43;101059.34;;;12.31;51.57
56400;BME280;42298;53.638;9.876;2023-01-29T21:12:09;101069.78;;;12.34;50.82
56400;BME280;42298;53.638;9.876;2023-01-29T21:14:34;101079.41;;;12.45;50.98
56400;BME280;42298;53.638;9.876;2023-01-29T21:17:00;101078.16;;;12.29;51.07
56400;BME280;42298;53.638;9.876;2023-01-29T21:19:26;101076.03;;;12.48;51.25
56400;BME280;42298;53.638;9.876;2023-01-29T21:21:52;101076.47;;;12.64;50.64
56400;BME280;42298;53.638;9.876;2023-01-29T21:24:17;101058.91;;;12.60;50.56
56400;BME280;42298;53.638;9.876;2023-01-29T21:26:46;101028.72;;;12.41;50.96
56400;BME280;42298;53.638;9.876;2023-01-29T21:29:12;101049.78;;;12.59;51.18
56400;BME280;42298;53.638;9.876;2023-01-29T21:31:39;101046.44;;;12.71;50.51
56400;BME280;42298;53.638;9.876;2023-01-29T21:34:04;101053.22;;;12.65;50.90
56400;BME280;42298;53.638;9.876;2023-01-29T21:36:30;101029.69;;;12.45;50.90
56400;BME280;42298;53.638;9.876;2023-01-29T21:38:56;101019.91;;;12.39;50.71
56400;BME280;42298;53.638;9.876;2023-01-29T21:41:21;101029.59;;;12.50;50.40
56400;BME280;42298;53.638;9.876;2023-01-29T21:44:07;101031.81;;;12.70;50.25
56400;BME280;42298;53.638;9.876;2023-01-29T21:46:32;101023.09;;;12.55;51.00
56400;BME280;42298;53.638;9.876;2023-01-29T21:48:58;101041.16;;;12.52;51.22
56400;BME280;42298;53.638;9.876;2023-01-29T21:51:23;101036.97;;;12.63;50.70
56400;BME280;42298;53.638;9.876;2023-01-29T21:53:48;101029.59;;;12.81;50.83
56400;BME280;42298;53.638;9.876;2023-01-29T21:56:14;101029.50;;;12.94;50.41
56400;BME280;42298;53.638;9.876;2023-01-29T21:58:46;101019.50;;;13.07;49.59
56400;BME280;42298;53.638;9.876;2023-01-29T22:01:11;101023.59;;;13.09;49.57
56400;BME280;42298;53.638;9.876;2023-01-29T22:03:37;101024.31;;;12.93;49.93
56400;BME280;42298;53.638;9.876;2023-01-29T22:06:02;101018.69;;;12.76;50.43
56400;BME280;42298;53.638;9.876;2023-01-29T22:08:27;101010.66;;;12.66;51.36
56400;BME280;42298;53.638;9.876;2023-01-29T22:10:54;100989.09;;;12.76;51.57
56400;BME280;42298;53.638;9.876;2023-01-29T22:13:19;100977.97;;;12.59;51.70
56400;BME280;42298;53.638;9.876;2023-01-29T22:15:45;100971.91;;;12.57;52.06
56400;BME280;42298;53.638;9.876;2023-01-29T22:18:10;100966.06;;;12.59;52.12
56400;BME280;42298;53.638;9.876;2023-01-29T22:20:35;100968.53;;;12.60;52.24
56400;BME280;42298;53.638;9.876;2023-01-29T22:23:01;100962.38;;;12.63;51.85
56400;BME280;42298;53.638;9.876;2023-01-29T22:25:26;100975.00;;;12.86;51.65
56400;BME280;42298;53.638;9.876;2023-01-29T22:27:52;100970.59;;;12.85;51.63
56400;BME280;42298;53.638;9.876;2023-01-29T22:30:17;100961.38;;;12.98;51.92
56400;BME280;42298;53.638;9.876;2023-01-29T22:32:43;100938.09;;;12.52;52.30
56400;BME280;42298;53.638;9.876;2023-01-29T22:35:08;100928.41;;;12.63;52.27
56400;BME280;42298;53.638;9.876;2023-01-29T22:37:34;100934.38;;;12.56;52.28
56400;BME280;42298;53.638;9.876;2023-01-29T22:40:00;100930.06;;;12.72;52.43
56400;BME280;42298;53.638;9.876;2023-01-29T22:42:25;100924.06;;;12.79;52.30
56400;BME280;42298;53.638;9.876;2023-01-29T22:44:51;100904.28;;;12.85;52.02
56400;BME280;42298;53.638;9.876;2023-01-29T22:47:17;100891.97;;;12.52;52.57
56400;BME280;42298;53.638;9.876;2023-01-29T22:49:42;100891.88;;;12.74;52.05
56400;BME280;42298;53.638;9.876;2023-01-29T22:52:09;100889.94;;;12.75;52.47
56400;BME280;42298;53.638;9.876;2023-01-29T22:54:39;100869.94;;;12.78;52.27
56400;BME280;42298;53.638;9.876;2023-01-29T22:57:05;100832.78;;;12.45;52.17
56400;BME280;42298;53.638;9.876;2023-01-29T22:59:31;100866.19;;;12.74;52.80
56400;BME280;42298;53.638;9.876;2023-01-29T23:01:57;100835.44;;;12.67;53.08
56400;BME280;42298;53.638;9.876;2023-01-29T23:04:22;100833.97;;;12.69;52.68
56400;BME280;42298;53.638;9.876;2023-01-29T23:06:47;100801.31;;;12.71;53.02